Terminal Aerodrome Forecast
Issued by NWS Sterling, VA

Home | Current Version | Previous Version | Text Only | Print | Product List | Glossary On
Versions: 1 2 3 4 5 6 7 8 9 10 11 12 13 14 15 16 17 18 19
885
FTUS41 KLWX 280530
TAFBWI
TAF
KBWI 280530Z 2806/2912 00000KT P6SM SCT050 BKN250
     FM281900 17009KT P6SM SCT250
     FM290300 17005KT P6SM FEW250=

USA.gov is the U.S. government's official web portal to all federal, state and local government web resources and services.